createdAt,value
2018-09-19T00:00:40.532Z,21.25
2018-09-19T00:03:09.520Z,21.26
2018-09-19T00:05:38.496Z,21.25
2018-09-19T00:08:07.417Z,21.26
2018-09-19T00:10:36.241Z,21.25
2018-09-19T00:13:05.025Z,21.24
2018-09-19T00:15:33.832Z,21.23
2018-09-19T00:18:02.532Z,21.19
2018-09-19T00:20:31.344Z,21.20
2018-09-19T00:23:00.118Z,21.17
2018-09-19T00:25:29.182Z,21.15
2018-09-19T00:27:58.641Z,21.13
2018-09-19T00:30:27.501Z,21.10
2018-09-19T00:32:56.325Z,21.08
2018-09-19T00:35:25.396Z,21.04
2018-09-19T00:37:54.707Z,21.02
2018-09-19T00:40:23.795Z,20.97
2018-09-19T00:42:53.069Z,20.94
2018-09-19T00:45:22.571Z,20.91
2018-09-19T00:47:51.395Z,20.87
2018-09-19T00:50:20.695Z,20.86
2018-09-19T00:52:49.569Z,20.84
2018-09-19T00:55:18.373Z,20.81
2018-09-19T00:57:47.255Z,20.78
2018-09-19T01:00:16.479Z,20.75
2018-09-19T01:02:45.470Z,20.71
2018-09-19T01:05:14.332Z,20.68
2018-09-19T01:07:43.498Z,20.68
2018-09-19T01:10:12.724Z,20.69
2018-09-19T01:12:41.900Z,20.68
2018-09-19T01:15:10.898Z,20.67
2018-09-19T01:17:39.824Z,20.63
2018-09-19T01:20:08.907Z,20.65
2018-09-19T01:22:38.338Z,20.68
2018-09-19T01:25:07.198Z,20.68
2018-09-19T01:27:36.048Z,20.71
2018-09-19T01:30:05.126Z,20.72
2018-09-19T01:32:33.978Z,20.73
2018-09-19T01:35:02.754Z,20.76
2018-09-19T01:37:31.867Z,20.78
2018-09-19T01:40:00.901Z,20.81
2018-09-19T01:42:29.669Z,20.83
2018-09-19T01:44:58.461Z,20.84
2018-09-19T01:47:27.455Z,20.86
2018-09-19T01:49:56.196Z,20.87
2018-09-19T01:52:25.231Z,20.88
2018-09-19T01:54:54.563Z,20.89
2018-09-19T01:57:23.276Z,20.88
2018-09-19T01:59:52.037Z,20.87
2018-09-19T02:02:20.788Z,20.86
2018-09-19T02:04:49.479Z,20.85
2018-09-19T02:07:18.299Z,20.85
2018-09-19T02:09:47.298Z,20.84
2018-09-19T02:12:16.047Z,20.82
2018-09-19T02:14:45.707Z,20.79
2018-09-19T02:17:14.558Z,20.77
2018-09-19T02:19:43.383Z,20.77
2018-09-19T02:22:12.164Z,20.72
2018-09-19T02:24:41.151Z,20.70
2018-09-19T02:27:09.992Z,20.69
2018-09-19T02:29:38.728Z,20.65
2018-09-19T02:32:07.557Z,20.64
2018-09-19T02:34:36.307Z,20.62
2018-09-19T02:37:05.064Z,20.60
2018-09-19T02:39:33.944Z,20.58
2018-09-19T02:42:03.097Z,20.60
2018-09-19T02:44:32.076Z,20.57
2018-09-19T02:47:01.248Z,20.54
2018-09-19T02:49:30.209Z,20.50
2018-09-19T02:51:59.990Z,20.49
2018-09-19T02:54:30.611Z,20.47
2018-09-19T02:56:59.824Z,20.44
2018-09-19T02:59:29.025Z,20.40
2018-09-19T03:01:58.342Z,20.37
2018-09-19T03:04:27.808Z,20.33
2018-09-19T03:06:56.614Z,20.26
2018-09-19T03:09:26.012Z,20.23
2018-09-19T03:11:55.118Z,20.22
2018-09-19T03:14:23.905Z,20.20
2018-09-19T03:16:52.733Z,20.20
2018-09-19T03:19:22.009Z,20.15
2018-09-19T03:21:51.750Z,20.12
2018-09-19T03:24:20.623Z,20.07
2018-09-19T03:26:49.388Z,20.06
2018-09-19T03:29:18.471Z,20.04
2018-09-19T03:31:47.265Z,20.01
2018-09-19T03:34:16.130Z,19.98
2018-09-19T03:36:45.671Z,19.95
2018-09-19T03:39:14.481Z,19.93
2018-09-19T03:41:43.274Z,19.93
2018-09-19T03:44:12.031Z,19.92
2018-09-19T03:46:41.004Z,19.91
2018-09-19T03:49:10.205Z,19.89
2018-09-19T03:51:39.817Z,19.86
2018-09-19T03:54:09.345Z,19.87
2018-09-19T03:56:38.451Z,19.84
2018-09-19T03:59:07.186Z,19.83
2018-09-19T04:01:36.648Z,19.81
2018-09-19T04:04:05.477Z,19.78
2018-09-19T04:06:34.372Z,19.78
2018-09-19T04:09:03.385Z,19.75
2018-09-19T04:11:32.314Z,19.71
2018-09-19T04:14:01.614Z,19.68
2018-09-19T04:16:30.442Z,19.66
2018-09-19T04:18:59.607Z,19.62
2018-09-19T04:21:28.761Z,19.60
2018-09-19T04:23:57.547Z,19.58
2018-09-19T04:26:26.341Z,19.56
2018-09-19T04:28:55.146Z,19.54
2018-09-19T04:31:23.935Z,19.52
2018-09-19T04:33:53.358Z,19.49
2018-09-19T04:36:22.367Z,19.46
2018-09-19T04:38:51.676Z,19.44
2018-09-19T04:41:20.519Z,19.43
2018-09-19T04:43:49.589Z,19.39
2018-09-19T04:46:18.676Z,19.39
2018-09-19T04:48:47.591Z,19.40
2018-09-19T04:51:16.485Z,19.41
2018-09-19T04:53:45.644Z,19.39
2018-09-19T04:56:14.511Z,19.40
2018-09-19T04:58:43.519Z,19.39
2018-09-19T05:01:12.498Z,19.38
2018-09-19T05:03:41.321Z,19.35
2018-09-19T05:06:10.188Z,19.30
2018-09-19T05:08:39.022Z,19.29
2018-09-19T05:11:07.868Z,19.31
2018-09-19T05:13:36.655Z,19.32
2018-09-19T05:16:05.467Z,19.33
2018-09-19T05:18:34.522Z,19.36
2018-09-19T05:21:03.689Z,19.33
2018-09-19T05:23:32.460Z,19.29
2018-09-19T05:26:01.341Z,19.30
2018-09-19T05:28:30.435Z,19.29
2018-09-19T05:30:59.164Z,19.30
2018-09-19T05:33:28.238Z,19.29
2018-09-19T05:36:00.097Z,19.30
2018-09-19T05:38:29.677Z,19.30
2018-09-19T05:40:58.775Z,19.27
2018-09-19T05:43:28.388Z,19.25
2018-09-19T05:45:57.303Z,19.17
2018-09-19T05:48:27.452Z,19.10
2018-09-19T05:50:56.203Z,19.06
2018-09-19T05:53:25.718Z,19.04
2018-09-19T05:55:55.296Z,19.01
2018-09-19T05:58:25.028Z,19.07
2018-09-19T06:00:55.136Z,19.10
2018-09-19T06:03:25.113Z,19.12
2018-09-19T06:05:54.172Z,19.12
2018-09-19T06:08:23.564Z,19.13
2018-09-19T06:10:52.853Z,19.11
2018-09-19T06:13:21.726Z,19.10
2018-09-19T06:15:50.651Z,19.10
2018-09-19T06:18:19.435Z,19.09
2018-09-19T06:20:50.046Z,19.05
2018-09-19T06:23:19.213Z,19.05
2018-09-19T06:25:48.326Z,19.02
2018-09-19T06:28:17.666Z,19.03
2018-09-19T06:30:46.937Z,19.07
2018-09-19T06:33:16.777Z,19.12
2018-09-19T06:35:46.424Z,19.18
2018-09-19T06:38:16.582Z,19.24
2018-09-19T06:40:47.084Z,19.24
2018-09-19T06:43:16.186Z,19.28
2018-09-19T06:45:45.063Z,19.34
2018-09-19T06:48:13.830Z,19.32
2018-09-19T06:50:42.635Z,19.38
2018-09-19T06:53:11.816Z,19.45
2018-09-19T06:55:40.585Z,19.47
2018-09-19T06:58:10.129Z,19.60
2018-09-19T07:00:39.912Z,19.76
2018-09-19T07:03:08.726Z,19.85
2018-09-19T07:05:37.942Z,20.00
2018-09-19T07:08:07.735Z,20.10
2018-09-19T07:10:36.551Z,20.25
2018-09-19T07:13:05.474Z,20.37
2018-09-19T07:15:34.391Z,20.46
2018-09-19T07:18:03.175Z,20.63
2018-09-19T07:20:31.985Z,20.68
2018-09-19T07:23:01.478Z,20.77
2018-09-19T07:25:30.416Z,20.79
2018-09-19T07:27:59.731Z,20.88
2018-09-19T07:30:28.932Z,20.97
2018-09-19T07:32:58.081Z,21.02
2018-09-19T07:35:26.947Z,21.09
2018-09-19T07:37:56.346Z,21.11
2018-09-19T07:40:25.328Z,21.11
2018-09-19T07:42:54.125Z,21.12
2018-09-19T07:45:23.853Z,21.14
2018-09-19T07:47:52.900Z,21.06
2018-09-19T07:50:22.790Z,21.10
2018-09-19T07:52:52.388Z,21.14
2018-09-19T07:55:21.260Z,21.21
2018-09-19T07:57:49.984Z,21.33
2018-09-19T08:00:19.293Z,21.34
2018-09-19T08:02:48.529Z,21.42
2018-09-19T08:05:17.543Z,21.48
2018-09-19T08:07:46.392Z,21.56
2018-09-19T08:10:15.422Z,21.61
2018-09-19T08:12:44.188Z,21.62
2018-09-19T08:15:12.995Z,21.67
2018-09-19T08:17:42.125Z,21.79
2018-09-19T08:20:11.148Z,21.82
2018-09-19T08:22:39.918Z,21.89
2018-09-19T08:25:08.731Z,21.98
2018-09-19T08:27:37.841Z,22.07
2018-09-19T08:30:06.746Z,22.12
2018-09-19T08:32:35.754Z,22.07
2018-09-19T08:35:04.965Z,22.11
2018-09-19T08:37:33.698Z,22.33
2018-09-19T08:40:02.736Z,22.69
2018-09-19T08:42:31.497Z,22.81
2018-09-19T08:45:01.063Z,22.87
2018-09-19T08:47:30.729Z,22.83
2018-09-19T08:49:59.965Z,22.88
2018-09-19T08:52:29.098Z,23.02
2018-09-19T08:54:58.152Z,23.10
2018-09-19T08:57:26.943Z,23.21
2018-09-19T08:59:55.752Z,23.26
2018-09-19T09:02:24.916Z,23.47
2018-09-19T09:04:54.107Z,23.65
2018-09-19T09:07:23.275Z,23.86
2018-09-19T09:09:52.101Z,24.05
2018-09-19T09:12:20.969Z,24.13
2018-09-19T09:14:49.669Z,24.24
2018-09-19T09:17:18.815Z,24.21
2018-09-19T09:19:47.874Z,24.19
2018-09-19T09:22:16.713Z,24.14
2018-09-19T09:24:46.134Z,24.09
2018-09-19T09:27:14.976Z,24.08
2018-09-19T09:29:44.073Z,24.10
2018-09-19T09:32:12.875Z,24.05
2018-09-19T09:34:42.065Z,24.06
2018-09-19T09:37:10.877Z,24.08
2018-09-19T09:39:39.754Z,24.07
2018-09-19T09:42:09.051Z,24.14
2018-09-19T09:44:38.111Z,24.20
2018-09-19T09:47:07.417Z,24.23
2018-09-19T09:49:36.761Z,24.25
2018-09-19T09:52:05.748Z,24.17
2018-09-19T09:54:35.193Z,24.11
2018-09-19T09:57:04.733Z,24.06
2018-09-19T09:59:33.630Z,24.07
2018-09-19T10:02:05.846Z,24.14
2018-09-19T10:04:35.426Z,24.08
2018-09-19T10:07:04.160Z,24.10
2018-09-19T10:09:32.992Z,24.16
2018-09-19T10:12:02.182Z,24.25
2018-09-19T10:14:30.943Z,24.35
2018-09-19T10:17:00.371Z,24.43
2018-09-19T10:19:29.582Z,24.57
2018-09-19T10:21:59.236Z,24.64
2018-09-19T10:24:28.406Z,24.73
2018-09-19T10:26:57.501Z,24.85
2018-09-19T10:29:26.865Z,24.87
2018-09-19T10:31:56.508Z,25.03
2018-09-19T10:34:25.298Z,25.08
2018-09-19T10:36:54.657Z,25.29
2018-09-19T10:39:23.928Z,25.60
2018-09-19T10:41:53.267Z,25.88
2018-09-19T10:44:22.849Z,26.39
2018-09-19T10:46:52.357Z,26.75
2018-09-19T10:49:21.390Z,26.95
2018-09-19T10:51:50.557Z,26.73
2018-09-19T10:54:19.527Z,26.61
2018-09-19T10:56:48.454Z,26.36
2018-09-19T10:59:18.329Z,26.13
2018-09-19T11:01:47.339Z,25.97
2018-09-19T11:04:16.673Z,25.82
2018-09-19T11:06:45.861Z,25.64
2018-09-19T11:09:15.455Z,25.61
2018-09-19T11:11:45.050Z,25.57
2018-09-19T11:14:13.871Z,25.43
2018-09-19T11:16:48.967Z,25.41
2018-09-19T11:19:18.102Z,25.23
2018-09-19T11:21:46.820Z,25.28
2018-09-19T11:24:16.072Z,25.35
2018-09-19T11:26:45.993Z,25.45
2018-09-19T11:29:15.162Z,25.56
2018-09-19T11:31:44.288Z,25.70
2018-09-19T11:34:13.162Z,25.86
2018-09-19T11:36:42.042Z,26.08
2018-09-19T11:39:12.537Z,26.42
2018-09-19T11:41:41.746Z,26.88
2018-09-19T11:44:10.941Z,27.49
2018-09-19T11:46:39.765Z,27.93
2018-09-19T11:49:08.904Z,28.17
2018-09-19T11:51:38.064Z,27.98
2018-09-19T11:54:07.692Z,27.74
2018-09-19T11:56:37.070Z,27.76
2018-09-19T11:59:06.203Z,28.08
2018-09-19T12:01:35.128Z,29.08
2018-09-19T12:04:04.322Z,30.44
2018-09-19T12:06:33.174Z,31.25
2018-09-19T12:09:02.315Z,31.93
2018-09-19T12:11:31.962Z,33.36
2018-09-19T12:14:07.398Z,34.35
2018-09-19T12:16:36.561Z,35.59
2018-09-19T12:19:06.210Z,35.74
2018-09-19T12:21:35.134Z,36.58
2018-09-19T12:24:04.114Z,36.38
2018-09-19T12:26:33.643Z,36.51
2018-09-19T12:29:02.726Z,37.00
2018-09-19T12:31:31.930Z,36.47
2018-09-19T12:34:00.670Z,35.42
2018-09-19T12:36:29.659Z,33.83
2018-09-19T12:38:59.389Z,32.05
2018-09-19T12:41:28.495Z,31.02
2018-09-19T12:43:57.208Z,29.92
2018-09-19T12:46:26.112Z,29.39
2018-09-19T12:48:55.098Z,28.94
2018-09-19T12:51:24.112Z,28.54
2018-09-19T12:53:53.562Z,28.45
2018-09-19T12:56:22.826Z,28.16
2018-09-19T12:58:51.766Z,28.05
2018-09-19T13:01:20.587Z,27.95
2018-09-19T13:03:49.450Z,27.76
2018-09-19T13:06:18.536Z,27.61
2018-09-19T13:08:47.748Z,27.56
2018-09-19T13:11:17.451Z,27.58
2018-09-19T13:13:46.798Z,27.62
2018-09-19T13:16:15.774Z,27.56
2018-09-19T13:18:44.716Z,27.44
2018-09-19T13:21:14.638Z,27.34
2018-09-19T13:23:43.843Z,27.37
2018-09-19T13:26:12.900Z,27.19
2018-09-19T13:28:41.744Z,27.02
2018-09-19T13:31:10.570Z,26.92
2018-09-19T13:33:39.759Z,26.94
2018-09-19T13:36:08.746Z,26.85
2018-09-19T13:38:39.421Z,26.85
2018-09-19T13:41:08.664Z,27.00
2018-09-19T13:43:37.682Z,26.99
2018-09-19T13:46:06.701Z,26.99
2018-09-19T13:48:35.588Z,26.88
2018-09-19T13:51:12.581Z,27.03
2018-09-19T13:53:41.517Z,27.04
2018-09-19T13:56:10.908Z,27.10
2018-09-19T13:58:40.474Z,27.20
2018-09-19T14:01:09.911Z,27.20
2018-09-19T14:03:38.974Z,27.23
2018-09-19T14:06:08.998Z,27.10
2018-09-19T14:08:37.909Z,27.03
2018-09-19T14:11:06.847Z,27.07
2018-09-19T14:13:35.877Z,27.18
2018-09-19T14:16:04.728Z,27.24
2018-09-19T14:18:37.193Z,27.38
2018-09-19T14:21:06.715Z,27.43
2018-09-19T14:23:37.143Z,27.46
2018-09-19T14:26:09.818Z,27.46
2018-09-19T14:28:43.017Z,27.43
2018-09-19T14:31:12.242Z,27.36
2018-09-19T14:33:41.146Z,27.35
2018-09-19T14:36:10.398Z,27.25
2018-09-19T14:38:39.940Z,27.32
2018-09-19T14:41:09.424Z,27.38
2018-09-19T14:43:38.375Z,27.20
2018-09-19T14:46:07.650Z,26.95
2018-09-19T14:48:38.573Z,26.85
2018-09-19T14:51:07.508Z,26.88
2018-09-19T14:53:36.557Z,26.87
2018-09-19T14:56:06.551Z,27.10
2018-09-19T14:58:35.671Z,27.17
2018-09-19T15:01:04.821Z,27.28
2018-09-19T15:03:34.194Z,27.33
2018-09-19T15:06:03.922Z,27.29
2018-09-19T15:08:33.337Z,27.15
2018-09-19T15:11:02.537Z,27.10
2018-09-19T15:13:31.990Z,27.01
2018-09-19T15:16:01.149Z,26.82
2018-09-19T15:18:30.142Z,26.66
2018-09-19T15:20:59.571Z,26.77
2018-09-19T15:23:28.482Z,26.83
2018-09-19T15:25:57.628Z,26.97
2018-09-19T15:28:28.371Z,26.97
2018-09-19T15:30:57.674Z,26.92
2018-09-19T15:33:29.667Z,26.98
2018-09-19T15:35:59.704Z,27.04
2018-09-19T15:38:28.524Z,27.04
2018-09-19T15:40:57.472Z,27.05
2018-09-19T15:43:26.358Z,26.98
2018-09-19T15:45:55.431Z,26.96
2018-09-19T15:48:24.991Z,26.98
2018-09-19T15:50:54.294Z,26.90
2018-09-19T15:53:24.357Z,26.86
2018-09-19T15:55:53.961Z,26.73
2018-09-19T15:58:23.327Z,26.59
2018-09-19T16:00:52.509Z,26.64
2018-09-19T16:03:22.008Z,26.61
2018-09-19T16:05:51.244Z,26.43
2018-09-19T16:08:20.494Z,26.23
2018-09-19T16:10:49.893Z,26.06
2018-09-19T16:13:19.721Z,25.91
2018-09-19T16:15:49.291Z,25.86
2018-09-19T16:18:18.530Z,25.81
2018-09-19T16:20:47.631Z,25.67
2018-09-19T16:23:16.629Z,25.60
2018-09-19T16:25:45.388Z,25.58
2018-09-19T16:28:14.339Z,25.65
2018-09-19T16:30:43.185Z,25.66
2018-09-19T16:33:12.170Z,25.72
2018-09-19T16:35:41.326Z,25.71
2018-09-19T16:38:10.916Z,25.67
2018-09-19T16:40:40.900Z,25.49
2018-09-19T16:43:10.423Z,25.33
2018-09-19T16:45:39.432Z,25.16
2018-09-19T16:48:08.609Z,24.99
2018-09-19T16:50:38.310Z,24.93
2018-09-19T16:53:08.221Z,24.91
2018-09-19T16:55:37.120Z,24.82
2018-09-19T16:58:06.212Z,24.73
2018-09-19T17:00:35.106Z,24.67
2018-09-19T17:03:04.163Z,24.60
2018-09-19T17:05:33.435Z,24.52
2018-09-19T17:08:04.537Z,24.46
2018-09-19T17:10:33.798Z,24.41
2018-09-19T17:13:02.770Z,24.36
2018-09-19T17:15:32.039Z,24.29
2018-09-19T17:18:01.242Z,24.28
2018-09-19T17:20:30.696Z,24.28
2018-09-19T17:23:04.788Z,24.26
2018-09-19T17:25:41.547Z,24.25
2018-09-19T17:28:10.808Z,24.22
2018-09-19T17:30:39.722Z,24.22
2018-09-19T17:33:08.815Z,24.20
2018-09-19T17:35:37.994Z,24.18
2018-09-19T17:38:07.054Z,24.18
2018-09-19T17:40:36.603Z,24.16
2018-09-19T17:43:05.696Z,24.14
2018-09-19T17:45:34.748Z,24.13
2018-09-19T17:48:03.779Z,24.16
2018-09-19T17:50:32.772Z,24.19
2018-09-19T17:53:01.900Z,24.19
2018-09-19T17:55:30.758Z,24.21
2018-09-19T17:57:59.710Z,24.22
2018-09-19T18:00:28.892Z,24.23
2018-09-19T18:02:58.097Z,24.25
2018-09-19T18:05:27.106Z,24.26
2018-09-19T18:07:56.302Z,24.25
2018-09-19T18:10:25.794Z,24.23
2018-09-19T18:12:54.880Z,24.23
2018-09-19T18:15:24.077Z,24.22
2018-09-19T18:17:53.831Z,24.21
2018-09-19T18:20:22.743Z,24.18
2018-09-19T18:22:51.686Z,24.17
2018-09-19T18:25:20.833Z,24.15
2018-09-19T18:27:52.037Z,24.15
2018-09-19T18:30:22.650Z,24.14
2018-09-19T18:32:51.749Z,24.13
2018-09-19T18:35:20.725Z,24.17
2018-09-19T18:37:56.758Z,24.21
2018-09-19T18:40:26.139Z,24.26
2018-09-19T18:42:55.260Z,24.27
2018-09-19T18:45:24.621Z,24.28
2018-09-19T18:50:32.662Z,24.31
2018-09-19T18:53:19.573Z,24.32
2018-09-19T18:56:00.761Z,24.30
2018-09-19T18:58:30.661Z,24.33
2018-09-19T19:01:00.137Z,24.33
2018-09-19T19:03:29.315Z,24.35
2018-09-19T19:05:59.805Z,24.35
2018-09-19T19:08:28.793Z,24.34
2018-09-19T19:11:01.365Z,24.31
2018-09-19T19:13:31.082Z,24.28
2018-09-19T19:16:00.092Z,24.25
2018-09-19T19:18:29.572Z,24.22
2018-09-19T19:20:58.669Z,24.22
2018-09-19T19:23:27.898Z,24.19
2018-09-19T19:25:57.110Z,24.18
2018-09-19T19:28:27.947Z,24.15
2018-09-19T19:31:04.104Z,24.15
2018-09-19T19:33:33.618Z,24.13
2018-09-19T19:36:03.726Z,24.11
2018-09-19T19:38:32.752Z,24.08
2018-09-19T19:41:02.497Z,24.07
2018-09-19T19:43:40.547Z,24.06
2018-09-19T19:48:53.586Z,24.03
2018-09-19T19:51:22.756Z,24.01
2018-09-19T19:53:53.036Z,23.97
2018-09-19T19:56:23.227Z,23.96
2018-09-19T19:58:53.003Z,23.93
2018-09-19T20:01:21.902Z,23.93
2018-09-19T20:03:51.038Z,23.87
2018-09-19T20:06:19.842Z,23.84
2018-09-19T20:08:48.683Z,23.83
2018-09-19T20:11:17.848Z,23.82
2018-09-19T20:13:47.415Z,23.81
2018-09-19T20:16:16.638Z,23.77
2018-09-19T20:18:45.675Z,23.73
2018-09-19T20:21:14.873Z,23.72
2018-09-19T20:23:43.991Z,23.66
2018-09-19T20:26:14.001Z,23.62
2018-09-19T20:28:42.753Z,23.61
2018-09-19T20:31:11.565Z,23.59
2018-09-19T20:33:40.332Z,23.53
2018-09-19T20:36:09.119Z,23.51
2018-09-19T20:38:38.749Z,23.49
2018-09-19T20:41:08.012Z,23.48
2018-09-19T20:43:38.484Z,23.45
2018-09-19T20:46:08.881Z,23.42
2018-09-19T20:48:38.508Z,23.40
2018-09-19T20:51:07.941Z,23.37
2018-09-19T20:53:37.543Z,23.35
2018-09-19T20:56:06.945Z,23.31
2018-09-19T20:58:35.679Z,23.31
2018-09-19T21:01:04.626Z,23.30
2018-09-19T21:03:33.654Z,23.29
2018-09-19T21:06:02.711Z,23.29
2018-09-19T21:08:31.755Z,23.25
2018-09-19T21:11:01.106Z,23.22
2018-09-19T21:13:30.103Z,23.19
2018-09-19T21:15:59.552Z,23.15
2018-09-19T21:18:28.910Z,23.15
2018-09-19T21:20:57.720Z,23.14
2018-09-19T21:23:26.791Z,23.10
2018-09-19T21:25:55.580Z,23.06
2018-09-19T21:28:24.745Z,22.99
2018-09-19T21:30:53.934Z,22.98
2018-09-19T21:33:23.198Z,22.96
2018-09-19T21:35:51.975Z,22.95
2018-09-19T21:38:20.820Z,22.91
2018-09-19T21:40:49.995Z,22.91
2018-09-19T21:43:18.776Z,22.91
2018-09-19T21:45:47.561Z,22.91
2018-09-19T21:48:16.634Z,22.88
2018-09-19T21:50:45.467Z,22.87
2018-09-19T21:53:14.619Z,22.88
2018-09-19T21:55:43.757Z,22.88
2018-09-19T21:58:12.606Z,22.89
2018-09-19T22:00:41.591Z,22.80
2018-09-19T22:03:11.014Z,22.72
2018-09-19T22:05:40.222Z,22.67
2018-09-19T22:08:09.317Z,22.60
2018-09-19T22:10:38.080Z,22.56
2018-09-19T22:13:06.937Z,22.52
2018-09-19T22:15:35.877Z,22.48
2018-09-19T22:18:04.610Z,22.43
2018-09-19T22:20:33.766Z,22.40
2018-09-19T22:23:03.276Z,22.37
2018-09-19T22:25:32.096Z,22.36
2018-09-19T22:28:00.790Z,22.35
2018-09-19T22:30:30.563Z,22.31
2018-09-19T22:32:59.537Z,22.32
2018-09-19T22:35:28.378Z,22.30
2018-09-19T22:37:57.340Z,22.31
2018-09-19T22:40:26.106Z,22.32
2018-09-19T22:42:54.890Z,22.30
2018-09-19T22:45:23.804Z,22.28
2018-09-19T22:47:52.605Z,22.26
2018-09-19T22:50:21.473Z,22.26
2018-09-19T22:52:50.447Z,22.20
2018-09-19T22:55:19.248Z,22.16
2018-09-19T22:57:48.030Z,22.11
2018-09-19T23:00:17.164Z,22.10
2018-09-19T23:02:46.262Z,22.12
2018-09-19T23:05:15.019Z,22.14
2018-09-19T23:07:43.814Z,22.17
2018-09-19T23:10:12.588Z,22.18
2018-09-19T23:12:41.743Z,22.16
2018-09-19T23:15:10.848Z,22.12
2018-09-19T23:17:39.639Z,22.12
2018-09-19T23:20:09.039Z,22.13
2018-09-19T23:22:37.804Z,22.12
2018-09-19T23:25:06.594Z,22.12
2018-09-19T23:27:35.707Z,22.11
2018-09-19T23:30:05.308Z,22.11
2018-09-19T23:32:34.510Z,22.09
2018-09-19T23:35:03.637Z,22.07
2018-09-19T23:37:32.757Z,22.04
2018-09-19T23:40:01.504Z,22.00
2018-09-19T23:42:31.327Z,21.98
2018-09-19T23:45:00.795Z,21.97
2018-09-19T23:47:30.510Z,21.93
2018-09-19T23:49:59.506Z,21.89
2018-09-19T23:52:28.800Z,21.88
2018-09-19T23:54:57.569Z,21.87
2018-09-19T23:57:26.439Z,21.83
2018-09-19T23:59:55.492Z,21.81
